Time;durP1;ratioP1;P1;durP2;ratioP2;P2;SDS_P1;SDS_P2;PMS_P1;PMS_P2;Temp;Humidity;BMP_temperature;BMP_pressure;BME280_temperature;BME280_humidity;BME280_pressure;Samples;Min_cycle;Max_cycle;Signal;HPM_P1;HPM_P2
2021/09/13 00:01:22;;;;;;;3.70;3.50;;;19.70;55.70;;;;;;5033910;28;20026;-80
2021/09/13 00:03:48;;;;;;;3.60;3.42;;;19.70;55.70;;;;;;5033055;28;20033;-79
2021/09/13 00:06:14;;;;;;;3.50;3.38;;;19.70;55.80;;;;;;5032883;28;20022;-79
2021/09/13 00:08:40;;;;;;;3.47;3.33;;;19.60;55.80;;;;;;5033617;28;20045;-79
2021/09/13 00:11:06;;;;;;;3.70;3.50;;;19.60;55.90;;;;;;5033809;28;20025;-79
2021/09/13 00:13:32;;;;;;;3.80;3.60;;;19.60;55.90;;;;;;5032223;28;20037;-79
2021/09/13 00:15:59;;;;;;;3.28;3.17;;;19.50;56.00;;;;;;5032622;28;20034;-79
2021/09/13 00:18:25;;;;;;;3.28;3.17;;;19.40;56.00;;;;;;5033305;28;20044;-79
2021/09/13 00:20:51;;;;;;;3.65;3.45;;;19.40;56.10;;;;;;5033689;28;20029;-79
2021/09/13 00:23:18;;;;;;;3.60;3.40;;;19.40;56.20;;;;;;5033470;28;20022;-80
2021/09/13 00:25:44;;;;;;;3.50;3.40;;;19.30;56.20;;;;;;5033559;28;20045;-80
2021/09/13 00:28:10;;;;;;;3.67;3.47;;;19.30;56.30;;;;;;5033944;28;20029;-79
2021/09/13 00:30:36;;;;;;;3.67;3.47;;;19.30;56.30;;;;;;5011925;28;20030;-80
2021/09/13 00:33:02;;;;;;;3.40;3.30;;;19.30;56.40;;;;;;5027247;28;20033;-79
2021/09/13 00:35:29;;;;;;;3.30;3.20;;;19.30;56.40;;;;;;5033263;28;20052;-79
2021/09/13 00:37:55;;;;;;;3.13;3.03;;;19.30;56.50;;;;;;5032369;28;20482;-79
2021/09/13 00:40:22;;;;;;;3.35;3.25;;;19.20;56.50;;;;;;5032911;28;20052;-79
2021/09/13 00:42:48;;;;;;;3.45;3.28;;;19.20;56.80;;;;;;5032233;28;20382;-80
2021/09/13 00:45:14;;;;;;;3.75;3.55;;;19.10;56.70;;;;;;5032679;28;20029;-79
2021/09/13 00:47:40;;;;;;;3.58;3.38;;;19.10;56.80;;;;;;5032089;28;20037;-80
2021/09/13 00:50:07;;;;;;;3.40;3.30;;;19.10;56.80;;;;;;5033271;28;20048;-79
2021/09/13 00:52:33;;;;;;;3.97;3.78;;;19.00;56.80;;;;;;5033224;28;20029;-79
2021/09/13 00:55:00;;;;;;;3.58;3.38;;;19.00;56.80;;;;;;5033624;28;20481;-79
2021/09/13 00:57:26;;;;;;;3.40;3.30;;;19.00;56.90;;;;;;5031455;28;20025;-80
2021/09/13 00:59:53;;;;;;;3.83;3.63;;;19.00;56.90;;;;;;5031727;28;20390;-79
2021/09/13 01:02:19;;;;;;;3.45;3.35;;;19.00;56.90;;;;;;5031921;28;20478;-79
2021/09/13 01:04:46;;;;;;;3.63;3.42;;;19.00;57.00;;;;;;5032886;28;20029;-79
2021/09/13 01:07:12;;;;;;;3.53;3.40;;;19.00;57.00;;;;;;5032370;28;20359;-79
2021/09/13 01:09:38;;;;;;;3.20;3.10;;;19.00;57.00;;;;;;5031496;28;20053;-79
2021/09/13 01:12:08;;;;;;;3.40;3.30;;;18.90;57.10;;;;;;5031133;28;20028;-79
2021/09/13 01:14:39;;;;;;;3.45;3.25;;;19.00;57.20;;;;;;5032561;28;20068;-79
2021/09/13 01:17:05;;;;;;;3.60;3.40;;;18.90;57.20;;;;;;5030991;28;20037;-79
2021/09/13 01:19:31;;;;;;;3.65;3.45;;;19.00;57.20;;;;;;5015499;28;20044;-79
2021/09/13 01:22:01;;;;;;;3.30;3.20;;;19.00;57.20;;;;;;5033170;28;20029;-80
2021/09/13 01:24:29;;;;;;;3.38;3.28;;;19.00;57.20;;;;;;5032418;28;20026;-79
2021/09/13 01:27:02;;;;;;;3.30;3.20;;;19.00;57.20;;;;;;5030989;28;20033;-80
2021/09/13 01:29:28;;;;;;;3.55;3.38;;;19.00;57.30;;;;;;5032478;28;20022;-79
2021/09/13 01:31:55;;;;;;;3.58;3.40;;;18.90;57.30;;;;;;5031892;28;20030;-80
2021/09/13 01:34:21;;;;;;;3.72;3.53;;;18.90;57.40;;;;;;5032810;28;20033;-79
2021/09/13 01:36:47;;;;;;;3.25;3.15;;;18.90;57.50;;;;;;5032562;28;20029;-79
2021/09/13 01:39:13;;;;;;;3.00;2.90;;;18.80;57.50;;;;;;5031985;28;20037;-79
2021/09/13 01:41:39;;;;;;;3.30;3.20;;;18.80;57.60;;;;;;5031940;28;20033;-79
2021/09/13 01:44:05;;;;;;;3.08;2.97;;;18.80;57.60;;;;;;5032145;28;20022;-79
2021/09/13 01:46:32;;;;;;;3.22;3.10;;;18.80;57.60;;;;;;5032123;28;20044;-79
2021/09/13 01:48:58;;;;;;;3.10;3.00;;;18.80;57.70;;;;;;5015181;28;20025;-79
2021/09/13 01:51:24;;;;;;;3.45;3.35;;;18.70;57.80;;;;;;5032062;28;20101;-79
2021/09/13 01:53:50;;;;;;;3.35;3.22;;;18.70;57.90;;;;;;5030697;28;20025;-79
2021/09/13 01:56:16;;;;;;;3.63;3.42;;;18.60;58.00;;;;;;5010561;28;20053;-79
2021/09/13 01:58:42;;;;;;;3.40;3.30;;;18.50;58.10;;;;;;5030701;28;20398;-79
2021/09/13 02:01:08;;;;;;;3.38;3.28;;;18.50;58.30;;;;;;5023366;28;20041;-79
2021/09/13 02:03:34;;;;;;;3.20;3.10;;;18.40;58.50;;;;;;5017801;28;20394;-79
2021/09/13 02:06:00;;;;;;;3.03;2.92;;;18.30;58.50;;;;;;5024607;28;20026;-79
2021/09/13 02:08:26;;;;;;;3.10;3.00;;;18.30;58.60;;;;;;5025964;28;20508;-79
2021/09/13 02:10:52;;;;;;;3.17;3.08;;;18.30;58.60;;;;;;5027298;28;20029;-79
2021/09/13 02:13:19;;;;;;;3.10;3.00;;;18.30;58.60;;;;;;5028899;28;20386;-79
2021/09/13 02:15:45;;;;;;;3.10;3.00;;;18.40;58.60;;;;;;5026735;28;20050;-79
2021/09/13 02:18:11;;;;;;;3.17;3.08;;;18.40;58.50;;;;;;5027388;28;20485;-79
2021/09/13 02:20:37;;;;;;;3.38;3.17;;;18.40;58.50;;;;;;5027372;28;20048;-79
2021/09/13 02:23:03;;;;;;;3.47;3.28;;;18.40;58.60;;;;;;5027445;28;20034;-80
2021/09/13 02:25:29;;;;;;;3.35;3.25;;;18.40;58.60;;;;;;5029391;28;20394;-79
2021/09/13 02:27:55;;;;;;;3.00;2.90;;;18.40;58.60;;;;;;5027283;28;20022;-79
2021/09/13 02:30:21;;;;;;;3.30;3.20;;;18.40;58.60;;;;;;5026949;28;20030;-79
2021/09/13 02:32:47;;;;;;;3.50;3.30;;;18.40;58.60;;;;;;5027074;28;20052;-79
2021/09/13 02:35:13;;;;;;;3.08;2.97;;;18.50;58.60;;;;;;5027127;28;20034;-79
2021/09/13 02:37:39;;;;;;;3.15;3.05;;;18.40;58.70;;;;;;5021218;28;20030;-79
2021/09/13 02:40:06;;;;;;;3.47;3.28;;;18.40;58.70;;;;;;5031827;28;20029;-79
2021/09/13 02:42:32;;;;;;;3.58;3.38;;;18.40;58.80;;;;;;5030271;28;20045;-79
2021/09/13 02:44:58;;;;;;;3.20;3.10;;;18.30;58.80;;;;;;5031176;28;20049;-79
2021/09/13 02:47:25;;;;;;;3.40;3.20;;;18.30;58.90;;;;;;5029826;28;20398;-79
2021/09/13 02:49:51;;;;;;;3.35;3.25;;;18.20;59.00;;;;;;5030365;28;20037;-80
2021/09/13 02:52:17;;;;;;;3.78;3.10;;;18.20;59.10;;;;;;5032237;28;20045;-79
2021/09/13 02:54:43;;;;;;;3.60;3.40;;;18.10;59.70;;;;;;5029642;28;20589;-79
2021/09/13 02:57:09;;;;;;;3.35;3.15;;;18.20;59.20;;;;;;5030126;28;20033;-79
2021/09/13 02:59:35;;;;;;;3.40;3.20;;;18.20;59.20;;;;;;5030096;28;20037;-79
2021/09/13 03:02:01;;;;;;;3.13;3.03;;;18.20;59.20;;;;;;5030899;28;20036;-79
2021/09/13 03:04:27;;;;;;;3.20;3.10;;;18.10;59.20;;;;;;5030281;28;20041;-79
2021/09/13 03:06:53;;;;;;;3.00;2.90;;;18.10;59.30;;;;;;5013638;28;20041;-79
2021/09/13 03:09:19;;;;;;;3.30;3.10;;;18.10;59.30;;;;;;5030683;28;20049;-79
2021/09/13 03:11:45;;;;;;;2.90;2.80;;;18.10;59.40;;;;;;5030071;28;20458;-79
2021/09/13 03:14:12;;;;;;;3.17;3.00;;;18.00;59.40;;;;;;5031247;28;20033;-79
2021/09/13 03:16:38;;;;;;;3.28;3.08;;;18.00;59.50;;;;;;5028974;28;20044;-79
2021/09/13 03:19:04;;;;;;;2.95;2.85;;;18.00;59.50;;;;;;5030626;28;20029;-79
2021/09/13 03:21:30;;;;;;;3.10;2.90;;;18.00;59.50;;;;;;5031085;28;20025;-79
2021/09/13 03:23:56;;;;;;;2.70;2.60;;;18.10;59.60;;;;;;5030654;28;20048;-79
2021/09/13 03:26:22;;;;;;;2.90;2.80;;;18.10;59.50;;;;;;5033522;28;20029;-79
2021/09/13 03:28:48;;;;;;;3.17;3.08;;;18.10;59.50;;;;;;5017963;28;20417;-80
2021/09/13 03:31:14;;;;;;;3.10;3.00;;;18.10;59.60;;;;;;5033765;28;20022;-79
2021/09/13 03:33:41;;;;;;;3.35;3.15;;;18.10;59.60;;;;;;5034529;28;20032;-79
2021/09/13 03:36:07;;;;;;;3.05;2.95;;;18.00;59.60;;;;;;5034240;28;20053;-79
2021/09/13 03:38:33;;;;;;;3.30;3.10;;;18.00;59.80;;;;;;5034179;28;20033;-79
2021/09/13 03:41:00;;;;;;;3.00;2.90;;;17.90;59.90;;;;;;5034573;28;20025;-79
2021/09/13 03:43:26;;;;;;;3.13;3.03;;;17.80;60.00;;;;;;5033527;28;20410;-79
2021/09/13 03:45:53;;;;;;;2.70;2.60;;;17.70;60.20;;;;;;5034267;28;20034;-79
2021/09/13 03:48:20;;;;;;;3.13;3.03;;;17.70;60.30;;;;;;5034321;28;20021;-79
2021/09/13 03:50:47;;;;;;;3.03;2.90;;;17.70;60.40;;;;;;5032304;28;20041;-79
2021/09/13 03:53:13;;;;;;;2.72;2.63;;;17.70;60.40;;;;;;5033986;28;20070;-79
2021/09/13 03:55:39;;;;;;;3.33;3.00;;;17.60;60.40;;;;;;5033087;28;20041;-79
2021/09/13 03:58:05;;;;;;;2.97;2.88;;;17.60;60.40;;;;;;5034822;28;20524;-79
2021/09/13 04:00:31;;;;;;;2.80;2.70;;;17.60;60.40;;;;;;5033588;28;20033;-79
2021/09/13 04:02:58;;;;;;;3.00;2.90;;;17.70;60.50;;;;;;5032301;28;20034;-79
2021/09/13 04:05:25;;;;;;;3.20;3.00;;;17.70;60.50;;;;;;5032313;28;20494;-79
2021/09/13 04:12:53;;;;;;;2.85;2.75;;;17.70;60.70;;;;;;5033605;28;20033;-79
2021/09/13 04:15:19;;;;;;;3.22;3.03;;;17.70;60.60;;;;;;5033515;28;20482;-79
2021/09/13 04:17:45;;;;;;;3.10;3.00;;;17.80;60.60;;;;;;5033764;28;20030;-79
2021/09/13 04:20:12;;;;;;;3.17;3.03;;;17.80;60.60;;;;;;5033464;28;20041;-79
2021/09/13 04:22:38;;;;;;;3.10;2.92;;;17.80;60.60;;;;;;5032680;28;20513;-79
2021/09/13 04:25:05;;;;;;;3.10;3.00;;;17.80;60.60;;;;;;5034404;28;20040;-79
2021/09/13 04:27:31;;;;;;;2.80;2.70;;;17.80;60.60;;;;;;5032400;28;20363;-79
2021/09/13 04:29:57;;;;;;;3.00;2.90;;;17.70;60.70;;;;;;5033120;28;20429;-79
2021/09/13 04:32:23;;;;;;;3.35;3.15;;;17.70;60.70;;;;;;5033270;28;20033;-79
2021/09/13 04:34:49;;;;;;;3.00;2.90;;;17.60;60.80;;;;;;5032135;28;20037;-79
2021/09/13 04:37:16;;;;;;;2.60;2.50;;;17.60;61.00;;;;;;5033102;28;20026;-79
2021/09/13 04:39:42;;;;;;;3.25;3.05;;;17.50;61.00;;;;;;5032386;28;20029;-79
2021/09/13 04:42:08;;;;;;;2.92;2.83;;;17.50;61.10;;;;;;5033237;28;20413;-79
2021/09/13 04:44:34;;;;;;;3.20;3.00;;;17.40;61.20;;;;;;5033121;28;20038;-79
2021/09/13 04:47:00;;;;;;;2.92;2.83;;;17.50;61.20;;;;;;5031700;28;20032;-79
2021/09/13 04:49:26;;;;;;;3.10;2.83;;;17.50;61.30;;;;;;5033121;28;20031;-79
2021/09/13 04:51:53;;;;;;;2.50;2.40;;;17.50;61.30;;;;;;5015270;28;20044;-79
2021/09/13 04:54:19;;;;;;;3.22;3.03;;;17.50;61.30;;;;;;5015624;28;20037;-79
2021/09/13 04:56:45;;;;;;;3.05;2.85;;;17.50;61.30;;;;;;5032986;28;20108;-79
2021/09/13 04:59:11;;;;;;;2.90;2.80;;;17.50;61.30;;;;;;5032062;28;20042;-79
2021/09/13 05:01:37;;;;;;;2.95;2.85;;;17.50;61.30;;;;;;5032899;28;20045;-79
2021/09/13 05:04:04;;;;;;;3.20;2.90;;;17.50;61.40;;;;;;5033248;28;20029;-79
2021/09/13 05:06:30;;;;;;;3.03;2.92;;;17.50;61.40;;;;;;5032083;28;20072;-79
2021/09/13 05:08:56;;;;;;;2.88;2.78;;;17.50;61.50;;;;;;5031473;28;20512;-79
2021/09/13 05:11:22;;;;;;;2.88;2.78;;;17.50;61.50;;;;;;5032842;28;20147;-79
2021/09/13 05:13:51;;;;;;;3.55;3.25;;;17.50;61.50;;;;;;5031748;28;20033;-79
2021/09/13 05:16:17;;;;;;;3.00;2.90;;;17.50;61.50;;;;;;5028637;28;20410;-79
2021/09/13 05:18:45;;;;;;;3.25;3.08;;;17.50;61.50;;;;;;5032530;28;20028;-79
2021/09/13 05:21:12;;;;;;;2.97;2.88;;;17.50;61.50;;;;;;5032645;28;20466;-79
2021/09/13 05:23:38;;;;;;;2.85;2.75;;;17.50;61.60;;;;;;5031466;28;20056;-79
2021/09/13 05:26:05;;;;;;;3.30;3.10;;;17.50;61.60;;;;;;5032593;28;20044;-78
2021/09/13 05:28:31;;;;;;;2.83;2.72;;;17.50;61.60;;;;;;5032464;28;20033;-78
2021/09/13 05:30:57;;;;;;;3.00;2.90;;;17.50;61.70;;;;;;5032522;28;20030;-79
2021/09/13 05:33:23;;;;;;;3.88;3.08;;;17.40;61.70;;;;;;5031868;28;20021;-78
2021/09/13 05:35:49;;;;;;;3.05;2.95;;;17.40;61.70;;;;;;5032284;28;20405;-79
2021/09/13 05:38:15;;;;;;;3.10;3.00;;;17.40;61.80;;;;;;5031320;28;20022;-79
2021/09/13 05:40:43;;;;;;;2.97;2.85;;;17.40;61.90;;;;;;5030974;28;20046;-79
2021/09/13 05:43:09;;;;;;;3.00;2.90;;;17.30;62.00;;;;;;5030897;28;20425;-79
2021/09/13 05:45:36;;;;;;;2.90;2.80;;;17.30;62.10;;;;;;5031824;28;20030;-79
2021/09/13 05:48:03;;;;;;;2.80;2.70;;;17.30;62.10;;;;;;5030302;28;20496;-78
2021/09/13 05:50:29;;;;;;;3.00;2.90;;;17.30;62.10;;;;;;5031323;28;20045;-79
2021/09/13 05:52:55;;;;;;;2.85;2.75;;;17.30;62.10;;;;;;5032204;28;20041;-79
2021/09/13 05:55:21;;;;;;;3.40;3.20;;;17.30;62.20;;;;;;5032282;28;20038;-79
2021/09/13 05:57:47;;;;;;;2.88;2.78;;;17.30;62.20;;;;;;5032329;28;20029;-78
2021/09/13 06:00:14;;;;;;;3.28;3.08;;;17.30;62.20;;;;;;5031477;28;20052;-78
2021/09/13 06:02:40;;;;;;;2.80;2.70;;;17.40;62.30;;;;;;5030270;28;20030;-79
2021/09/13 06:05:07;;;;;;;2.90;2.80;;;17.30;62.20;;;;;;5030899;28;20022;-78
2021/09/13 06:07:33;;;;;;;2.88;2.78;;;17.30;62.30;;;;;;5030858;28;20474;-79
2021/09/13 06:09:59;;;;;;;2.92;2.83;;;17.30;62.20;;;;;;5031041;28;20050;-79
2021/09/13 06:12:25;;;;;;;3.38;3.17;;;17.30;62.20;;;;;;5031761;28;20044;-78
2021/09/13 06:14:51;;;;;;;3.20;3.00;;;17.30;62.20;;;;;;5031643;28;20038;-79
2021/09/13 06:17:17;;;;;;;3.33;3.03;;;17.40;62.10;;;;;;5031106;28;20053;-79
2021/09/13 06:19:46;;;;;;;3.30;3.10;;;17.50;62.10;;;;;;5013627;28;20045;-79
2021/09/13 06:22:12;;;;;;;2.80;2.70;;;17.50;62.00;;;;;;5031155;28;20018;-79
2021/09/13 06:24:39;;;;;;;3.78;3.47;;;17.60;61.90;;;;;;5031517;28;20041;-79
2021/09/13 06:27:06;;;;;;;3.92;3.72;;;17.80;61.80;;;;;;5031270;28;20045;-79
2021/09/13 06:29:33;;;;;;;10.90;3.63;;;18.00;61.30;;;;;;5031747;28;20030;-78
2021/09/13 06:32:00;;;;;;;3.78;3.55;;;18.30;60.90;;;;;;5030447;28;20466;-78
2021/09/13 06:34:27;;;;;;;3.90;3.70;;;18.50;60.50;;;;;;5031832;28;20048;-78
2021/09/13 06:36:53;;;;;;;4.60;4.30;;;18.60;60.10;;;;;;5030636;28;20057;-78
2021/09/13 06:39:19;;;;;;;4.00;3.80;;;18.70;60.00;;;;;;5031605;28;20025;-78
2021/09/13 06:41:45;;;;;;;3.60;3.40;;;18.80;60.00;;;;;;5013274;28;20044;-78
2021/09/13 06:44:11;;;;;;;3.92;3.72;;;18.70;60.10;;;;;;5031816;28;20172;-78
2021/09/13 06:49:06;;;;;;;4.13;3.83;;;18.60;60.60;;;;;;5037052;28;20024;-78
2021/09/13 06:51:33;;;;;;;3.90;3.70;;;18.50;60.80;;;;;;5030346;28;20033;-78
2021/09/13 06:53:59;;;;;;;3.83;3.63;;;18.50;60.90;;;;;;5030233;28;20030;-78
2021/09/13 06:56:26;;;;;;;5.78;3.80;;;18.50;61.10;;;;;;5029492;28;20056;-78
2021/09/13 06:58:52;;;;;;;3.70;3.50;;;18.50;61.20;;;;;;5013475;28;20378;-78
2021/09/13 07:01:22;;;;;;;3.80;3.50;;;18.40;61.30;;;;;;5035208;28;20030;-79
2021/09/13 07:03:57;;;;;;;3.97;3.78;;;18.40;61.50;;;;;;5034288;28;20036;-78
2021/09/13 07:06:25;;;;;;;3.78;3.58;;;18.40;61.60;;;;;;5034109;28;20022;-79
2021/09/13 07:08:52;;;;;;;3.75;3.55;;;18.30;61.60;;;;;;5033615;28;20041;-79
2021/09/13 07:11:18;;;;;;;3.58;3.38;;;18.40;61.50;;;;;;5035236;28;20478;-78
2021/09/13 07:13:44;;;;;;;3.95;3.75;;;18.40;61.40;;;;;;5034919;28;20034;-79
2021/09/13 07:16:10;;;;;;;13.25;3.95;;;18.50;61.30;;;;;;5034696;28;20037;-79
2021/09/13 07:18:36;;;;;;;3.70;3.50;;;18.60;61.30;;;;;;5034906;28;20029;-79
2021/09/13 07:21:02;;;;;;;4.05;3.75;;;18.60;61.20;;;;;;5034850;28;20034;-79
2021/09/13 07:23:28;;;;;;;3.50;3.40;;;18.60;61.20;;;;;;5033482;28;20095;-79
2021/09/13 07:25:54;;;;;;;3.33;3.22;;;18.70;61.10;;;;;;5035028;28;20034;-79
2021/09/13 07:28:21;;;;;;;4.35;4.13;;;18.80;61.00;;;;;;5035366;28;20049;-79
2021/09/13 07:30:47;;;;;;;4.00;3.75;;;19.00;60.90;;;;;;5033950;28;20029;-79
2021/09/13 07:33:14;;;;;;;3.72;3.53;;;19.10;60.70;;;;;;5033517;28;20021;-79
2021/09/13 07:35:40;;;;;;;3.83;3.63;;;19.20;60.50;;;;;;5015457;28;20077;-79
2021/09/13 07:38:06;;;;;;;4.15;3.95;;;19.20;60.40;;;;;;5033508;28;20022;-79
2021/09/13 07:40:32;;;;;;;3.90;3.70;;;19.30;60.30;;;;;;5034293;28;20485;-79
2021/09/13 07:42:58;;;;;;;4.20;4.00;;;19.40;60.40;;;;;;5033715;28;20021;-79
2021/09/13 07:45:24;;;;;;;4.47;4.28;;;19.50;60.30;;;;;;5034002;28;20478;-79
2021/09/13 07:47:51;;;;;;;6.13;4.50;;;19.60;60.10;;;;;;5034742;28;20025;-79
2021/09/13 07:50:17;;;;;;;4.15;3.95;;;19.80;59.80;;;;;;5033427;28;20466;-79
2021/09/13 07:52:44;;;;;;;4.28;4.07;;;20.00;59.60;;;;;;5033249;28;20036;-79
2021/09/13 07:55:10;;;;;;;4.45;4.25;;;20.10;59.50;;;;;;5034880;28;20033;-79
2021/09/13 07:57:36;;;;;;;4.50;4.30;;;20.00;59.50;;;;;;5033927;28;20474;-80
2021/09/13 08:00:03;;;;;;;4.47;4.28;;;20.10;60.30;;;;;;5032604;28;20021;-79
2021/09/13 08:02:31;;;;;;;4.28;4.07;;;20.10;59.70;;;;;;5032911;28;20512;-79
2021/09/13 08:05:00;;;;;;;4.57;4.07;;;20.00;59.70;;;;;;5032581;28;20406;-79
2021/09/13 08:07:26;;;;;;;4.40;4.10;;;20.00;59.80;;;;;;5033812;28;20033;-79
2021/09/13 08:09:53;;;;;;;4.28;4.07;;;20.00;59.90;;;;;;5033190;28;20406;-79
2021/09/13 08:12:19;;;;;;;4.10;3.90;;;20.10;60.00;;;;;;5033432;28;20030;-80
2021/09/13 08:14:45;;;;;;;4.50;4.30;;;20.20;60.00;;;;;;5032746;28;20397;-79
2021/09/13 08:17:11;;;;;;;4.50;4.25;;;20.30;59.80;;;;;;5032284;28;20050;-79
2021/09/13 08:19:40;;;;;;;4.20;4.00;;;20.30;59.70;;;;;;5033944;28;20044;-79
2021/09/13 08:22:07;;;;;;;5.10;4.70;;;20.40;59.80;;;;;;5033418;28;20025;-79
2021/09/13 08:24:34;;;;;;;4.60;4.40;;;20.40;59.90;;;;;;5032619;28;20041;-80
2021/09/13 08:27:00;;;;;;;4.82;4.60;;;20.40;59.90;;;;;;5033465;28;20033;-80
2021/09/13 08:29:26;;;;;;;4.22;4.03;;;20.50;59.80;;;;;;5032162;28;20037;-79
2021/09/13 08:31:55;;;;;;;4.82;4.63;;;20.70;59.50;;;;;;5032470;28;20393;-80
2021/09/13 08:34:21;;;;;;;4.70;4.50;;;21.00;59.90;;;;;;5033961;28;20021;-79
2021/09/13 08:36:47;;;;;;;5.63;5.38;;;21.20;59.00;;;;;;5033532;28;20386;-79
2021/09/13 08:39:14;;;;;;;5.80;5.50;;;21.40;58.80;;;;;;5015060;28;20474;-80
2021/09/13 08:41:43;;;;;;;5.60;5.30;;;21.60;58.50;;;;;;5032742;28;20056;-80
2021/09/13 08:44:10;;;;;;;6.32;5.82;;;21.70;58.30;;;;;;5032188;28;20017;-80
2021/09/13 08:46:50;;;;;;;6.68;6.38;;;21.90;58.10;;;;;;5032812;28;20034;-80
2021/09/13 08:49:30;;;;;;;6.65;6.35;;;22.00;58.00;;;;;;5032849;28;20025;-80
2021/09/13 08:51:57;;;;;;;6.40;6.10;;;22.10;58.00;;;;;;5032095;28;20048;-80
2021/09/13 08:54:26;;;;;;;5.35;5.15;;;22.00;58.00;;;;;;5031954;28;20040;-80
2021/09/13 08:56:55;;;;;;;6.93;6.63;;;22.10;58.10;;;;;;5031612;28;20474;-80
2021/09/13 08:59:23;;;;;;;6.30;6.00;;;22.00;58.20;;;;;;5031092;28;20037;-79
2021/09/13 09:01:50;;;;;;;6.50;6.15;;;22.10;58.20;;;;;;5015357;28;20033;-80
2021/09/13 09:04:16;;;;;;;7.82;7.43;;;22.30;58.10;;;;;;5033638;28;20033;-80
2021/09/13 09:06:43;;;;;;;6.82;6.05;;;22.50;57.70;;;;;;5033033;28;20030;-79
2021/09/13 09:09:11;;;;;;;6.10;5.80;;;22.80;57.40;;;;;;5031511;28;20048;-80
2021/09/13 09:12:00;;;;;;;5.30;5.10;;;23.00;57.10;;;;;;5032672;28;20060;-79
2021/09/13 09:14:44;;;;;;;6.32;6.03;;;23.20;57.00;;;;;;5031413;28;20042;-80
2021/09/13 09:17:10;;;;;;;5.07;4.88;;;23.30;56.70;;;;;;5032390;28;20052;-80
2021/09/13 09:19:37;;;;;;;5.63;5.32;;;23.30;56.80;;;;;;5032740;28;20111;-80
2021/09/13 09:22:25;;;;;;;6.50;6.20;;;23.40;56.80;;;;;;5032834;28;20045;-80
2021/09/13 09:24:52;;;;;;;7.15;6.85;;;23.50;56.80;;;;;;5031531;28;20036;-80
2021/09/13 09:27:18;;;;;;;7.68;7.28;;;23.60;56.60;;;;;;5031493;28;20029;-80
2021/09/13 09:29:44;;;;;;;8.02;7.65;;;23.70;56.40;;;;;;5032685;28;20034;-80
2021/09/13 09:32:17;;;;;;;7.30;7.00;;;23.80;56.40;;;;;;5030951;28;20041;-80
2021/09/13 09:34:44;;;;;;;7.13;6.75;;;23.90;56.30;;;;;;5030419;28;20036;-79
2021/09/13 09:37:11;;;;;;;8.45;7.95;;;24.00;56.10;;;;;;5014777;28;20061;-86
2021/09/13 09:39:49;;;;;;;7.50;7.10;;;24.20;55.90;;;;;;5028972;28;20033;-85
2021/09/13 09:42:31;;;;;;;6.75;6.45;;;24.40;55.70;;;;;;5009185;28;20048;-87
2021/09/13 09:44:58;;;;;;;7.72;7.32;;;24.60;55.40;;;;;;5020742;28;20030;-86
2021/09/13 09:47:24;;;;;;;7.97;7.25;;;24.80;55.20;;;;;;4986903;28;20041;-89
2021/09/13 09:49:53;;;;;;;8.85;8.30;;;25.00;55.10;;;;;;5031162;28;20018;-89
2021/09/13 09:52:30;;;;;;;8.75;8.35;;;25.00;54.80;;;;;;4984372;28;20045;-83
2021/09/13 09:55:16;;;;;;;8.30;7.90;;;24.90;54.90;;;;;;5026814;28;20018;-84
2021/09/13 09:58:05;;;;;;;6.53;6.22;;;24.80;55.20;;;;;;5028004;28;20508;-88
2021/09/13 10:00:31;;;;;;;6.80;6.50;;;24.70;55.40;;;;;;5026671;28;20044;-85
2021/09/13 10:02:58;;;;;;;10.32;6.93;;;24.60;55.40;;;;;;5026252;28;20029;-90
2021/09/13 10:05:28;;;;;;;6.80;6.50;;;24.60;56.00;;;;;;4991866;28;20054;-82
2021/09/13 10:07:54;;;;;;;7.25;6.95;;;24.70;55.40;;;;;;5024936;28;20025;-83
2021/09/13 10:10:22;;;;;;;8.30;7.90;;;24.80;55.20;;;;;;5025896;28;20041;-84
2021/09/13 10:12:48;;;;;;;8.77;8.32;;;24.90;54.90;;;;;;4983894;28;20044;-86
2021/09/13 10:15:14;;;;;;;10.30;9.80;;;25.10;54.70;;;;;;5029594;28;20037;-89
2021/09/13 10:17:40;;;;;;;10.55;10.05;;;25.20;54.50;;;;;;5019578;28;20065;-90
2021/09/13 10:20:07;;;;;;;10.68;10.18;;;25.30;54.40;;;;;;5029501;28;20040;-84
2021/09/13 10:22:39;;;;;;;10.55;10.05;;;25.40;54.30;;;;;;5012347;28;20036;-89
2021/09/13 10:25:06;;;;;;;10.55;10.05;;;25.50;54.20;;;;;;5029980;28;20029;-88
2021/09/13 10:27:40;;;;;;;11.77;11.23;;;25.60;54.10;;;;;;5028379;28;20049;-86
2021/09/13 10:30:22;;;;;;;10.40;9.90;;;25.60;54.00;;;;;;5026934;28;20025;-91
2021/09/13 10:32:52;;;;;;;10.88;10.38;;;25.60;53.90;;;;;;5029344;28;20021;-86
2021/09/13 10:35:20;;;;;;;10.45;9.95;;;25.70;53.90;;;;;;5014328;28;20050;-92
2021/09/13 10:37:50;;;;;;;10.52;10.02;;;25.70;53.80;;;;;;5006496;28;20044;-88
2021/09/13 10:40:16;;;;;;;11.48;10.95;;;25.80;53.60;;;;;;5035395;28;20036;-88
2021/09/13 10:42:56;;;;;;;11.90;11.30;;;25.80;53.60;;;;;;5033723;28;20047;-84
2021/09/13 10:45:40;;;;;;;12.55;11.98;;;25.90;53.60;;;;;;5031512;28;20045;-89
2021/09/13 10:48:20;;;;;;;13.50;12.90;;;26.00;53.50;;;;;;5028150;28;20041;-87
2021/09/13 10:50:49;;;;;;;14.40;13.70;;;26.00;53.20;;;;;;5026115;28;20037;-88
2021/09/13 10:53:18;;;;;;;16.08;15.00;;;26.10;53.20;;;;;;5026916;28;20192;-90
2021/09/13 10:55:52;;;;;;;15.43;14.73;;;26.10;53.10;;;;;;5031039;28;20092;-89
2021/09/13 10:58:18;;;;;;;13.60;13.00;;;26.20;53.00;;;;;;5023827;28;20026;-89
2021/09/13 11:00:44;;;;;;;14.20;13.52;;;26.20;52.80;;;;;;5028298;28;20492;-83
2021/09/13 11:03:22;;;;;;;14.45;13.75;;;26.30;52.80;;;;;;5029140;28;20049;-83
2021/09/13 11:06:06;;;;;;;14.32;13.68;;;26.40;52.60;;;;;;5031981;28;20045;-83
2021/09/13 11:08:35;;;;;;;12.48;11.88;;;26.40;52.50;;;;;;5032068;28;20493;-83
2021/09/13 11:11:01;;;;;;;16.38;15.57;;;26.50;52.50;;;;;;5026139;28;20057;-87
2021/09/13 11:13:27;;;;;;;15.20;14.50;;;26.60;52.50;;;;;;5028315;28;20041;-85
2021/09/13 11:15:54;;;;;;;15.13;14.43;;;26.60;52.30;;;;;;5028623;28;20037;-82
2021/09/13 11:18:37;;;;;;;16.80;16.00;;;26.70;52.30;;;;;;5029148;28;20037;-83
2021/09/13 11:21:27;;;;;;;17.05;16.25;;;26.60;52.30;;;;;;5014238;28;20036;-84
2021/09/13 11:24:18;;;;;;;15.18;14.48;;;26.70;52.30;;;;;;5031748;28;20025;-83
2021/09/13 11:27:04;;;;;;;17.20;16.40;;;26.70;52.10;;;;;;5026103;28;20037;-84
2021/09/13 11:29:38;;;;;;;11.82;11.23;;;26.80;52.10;;;;;;5030649;28;20040;-82
2021/09/13 11:32:09;;;;;;;14.13;13.38;;;26.90;52.00;;;;;;5025158;28;20029;-84
2021/09/13 11:34:35;;;;;;;;;;;26.90;51.70;;;;;;5027127;28;20081;-84
2021/09/13 11:37:23;;;;;;;12.90;12.23;;;26.90;51.60;;;;;;5028583;28;19944;-85
2021/09/13 11:39:51;;;;;;;14.15;13.45;;;26.90;51.60;;;;;;5033315;28;20025;-85
2021/09/13 11:42:24;;;;;;;12.80;12.20;;;26.90;51.60;;;;;;5032522;28;20028;-82
2021/09/13 11:44:51;;;;;;;15.40;14.70;;;26.90;51.50;;;;;;5026997;28;20500;-83
2021/09/13 11:47:19;;;;;;;13.90;13.27;;;27.00;51.60;;;;;;5023987;28;20037;-83
2021/09/13 11:49:46;;;;;;;12.38;11.77;;;27.00;51.50;;;;;;5031038;28;20022;-82
2021/09/13 11:52:28;;;;;;;12.50;11.90;;;27.00;51.40;;;;;;5026331;28;20034;-83
2021/09/13 11:55:06;;;;;;;11.90;11.32;;;27.10;51.30;;;;;;5031432;28;20037;-83
2021/09/13 11:57:39;;;;;;;10.80;10.30;;;27.20;51.20;;;;;;5031863;28;20081;-83
2021/09/13 12:00:35;;;;;;;10.98;10.38;;;27.30;51.20;;;;;;5031886;28;20036;-82
2021/09/13 12:03:03;;;;;;;11.48;10.77;;;27.20;51.00;;;;;;5023073;28;20033;-83
2021/09/13 12:05:32;;;;;;;11.60;11.00;;;27.10;51.10;;;;;;5030019;28;20054;-83
2021/09/13 12:08:00;;;;;;;11.75;11.25;;;27.10;51.20;;;;;;5031155;28;20033;-83
2021/09/13 12:10:36;;;;;;;12.18;11.57;;;27.00;51.30;;;;;;5033069;28;20045;-83
2021/09/13 12:13:07;;;;;;;13.25;12.65;;;27.00;51.40;;;;;;5030566;28;20037;-84
2021/09/13 12:15:34;;;;;;;11.32;10.82;;;27.00;51.30;;;;;;5025368;28;20053;-83
2021/09/13 12:18:04;;;;;;;10.80;10.30;;;27.10;51.10;;;;;;5027293;28;20045;-83
2021/09/13 12:20:40;;;;;;;10.53;10.03;;;27.20;51.00;;;;;;5031109;28;20021;-83
2021/09/13 12:23:11;;;;;;;10.85;10.35;;;27.30;50.90;;;;;;5034567;28;20060;-84
2021/09/13 12:25:54;;;;;;;11.13;10.63;;;27.40;50.90;;;;;;5045261;28;20026;-83
2021/09/13 12:28:25;;;;;;;11.05;10.55;;;27.40;50.70;;;;;;5034277;28;20482;-83
2021/09/13 12:30:53;;;;;;;10.27;9.77;;;27.60;50.70;;;;;;5041924;28;20041;-82
2021/09/13 12:33:19;;;;;;;11.63;11.13;;;27.70;50.60;;;;;;5042006;28;20045;-83
2021/09/13 12:35:47;;;;;;;10.05;9.55;;;27.80;50.30;;;;;;5028607;28;20037;-84
2021/09/13 12:38:23;;;;;;;14.82;10.95;;;27.90;50.10;;;;;;5027479;28;20406;-83
2021/09/13 12:40:58;;;;;;;10.77;10.27;;;28.10;50.00;;;;;;5027198;28;20036;-82
2021/09/13 12:43:26;;;;;;;10.48;9.98;;;28.10;49.70;;;;;;5031707;28;20049;-83
2021/09/13 12:46:05;;;;;;;10.57;10.07;;;28.00;49.70;;;;;;5016747;28;20057;-83
2021/09/13 12:48:31;;;;;;;9.43;9.02;;;28.00;49.80;;;;;;5028901;28;20033;-85
2021/09/13 12:50:58;;;;;;;10.73;10.23;;;28.00;49.80;;;;;;5027370;28;20025;-83
2021/09/13 12:53:29;;;;;;;10.13;9.63;;;28.10;49.80;;;;;;5029977;28;20042;-84
2021/09/13 12:56:14;;;;;;;9.73;9.23;;;28.20;49.60;;;;;;5030477;28;20505;-84